Time;durP1;ratioP1;P1;durP2;ratioP2;P2;SDS_P1;SDS_P2;PMS_P1;PMS_P2;Temp;Humidity;BMP_temperature;BMP_pressure;BME280_temperature;BME280_humidity;BME280_pressure;Samples;Min_cycle;Max_cycle;Signal;HPM_P1;HPM_P2
2022/08/30 00:02:05;;;;;;;13.65;6.58;;;;;;;14.62;100.00;99104.69;2115261;84;21002;-87
2022/08/30 00:05:07;;;;;;;10.03;6.03;;;;;;;14.63;100.00;99103.67;2115299;84;21000;-87
2022/08/30 00:08:07;;;;;;;11.22;6.15;;;;;;;14.67;100.00;99105.73;2115295;84;21061;-87
2022/08/30 00:11:08;;;;;;;6.72;5.65;;;;;;;14.67;100.00;99100.47;2115268;84;20963;-87
2022/08/30 00:14:09;;;;;;;16.62;7.12;;;;;;;14.68;100.00;99096.00;2115394;84;22087;-87
2022/08/30 00:17:10;;;;;;;9.35;6.60;;;;;;;14.66;100.00;99099.34;2115252;84;21061;-87
2022/08/30 00:20:10;;;;;;;9.73;6.28;;;;;;;14.68;100.00;99098.64;2115464;84;21485;-87
2022/08/30 00:23:11;;;;;;;10.80;6.80;;;;;;;14.71;100.00;99098.23;2115296;84;21354;-87
2022/08/30 00:26:12;;;;;;;7.83;5.87;;;;;;;14.70;100.00;99105.33;2115343;84;21105;-86
2022/08/30 00:29:13;;;;;;;8.60;5.97;;;;;;;14.70;100.00;99105.33;2115312;84;20939;-87
2022/08/30 00:32:15;;;;;;;8.33;6.58;;;;;;;14.67;100.00;99102.29;2115272;84;20990;-87
2022/08/30 00:35:15;;;;;;;8.88;6.47;;;;;;;14.69;100.00;99099.75;2115187;84;21033;-87
2022/08/30 00:38:16;;;;;;;8.98;7.33;;;;;;;14.72;100.00;99104.66;2115144;84;21020;-87
2022/08/30 00:41:17;;;;;;;8.73;6.62;;;;;;;14.77;100.00;99107.50;2115368;84;21448;-87
2022/08/30 00:44:18;;;;;;;9.65;6.03;;;;;;;14.77;100.00;99109.32;2115219;84;21056;-87
2022/08/30 00:47:19;;;;;;;9.58;5.92;;;;;;;14.78;100.00;99105.67;2115360;84;20970;-87
2022/08/30 00:50:20;;;;;;;9.00;6.53;;;;;;;14.78;100.00;99107.80;2115495;84;21016;-87
2022/08/30 00:53:21;;;;;;;8.53;5.80;;;;;;;14.75;100.00;99106.89;2115248;84;20982;-87
2022/08/30 00:56:23;;;;;;;9.60;6.97;;;;;;;14.74;100.00;99109.72;2115466;84;21037;-86
2022/08/30 00:59:24;;;;;;;10.40;6.00;;;;;;;14.70;100.00;99113.74;2115372;84;21068;-86
2022/08/30 01:02:24;;;;;;;6.97;6.28;;;;;;;14.63;100.00;99108.94;2115380;84;21001;-87
2022/08/30 01:05:25;;;;;;;8.88;6.45;;;;;;;14.58;100.00;99113.50;2115357;84;21085;-87
2022/08/30 01:08:26;;;;;;;12.03;6.83;;;;;;;14.51;100.00;99111.33;2115336;84;21021;-87
2022/08/30 01:11:27;;;;;;;12.13;7.37;;;;;;;14.46;100.00;99105.34;2115177;84;21014;-87
2022/08/30 01:14:27;;;;;;;10.65;7.60;;;;;;;14.40;100.00;99104.76;2115408;84;21008;-87
2022/08/30 01:17:28;;;;;;;11.30;7.67;;;;;;;14.33;100.00;99105.73;2114635;84;21061;-87
2022/08/30 01:20:29;;;;;;;10.78;7.15;;;;;;;14.22;100.00;99105.27;2114800;84;20974;-87
2022/08/30 01:23:29;;;;;;;15.78;6.67;;;;;;;14.18;100.00;99105.35;2114944;84;21041;-87
2022/08/30 01:26:30;;;;;;;9.75;6.78;;;;;;;14.12;100.00;99100.84;2114842;84;21078;-86
2022/08/30 01:29:31;;;;;;;8.15;6.47;;;;;;;14.09;100.00;99109.14;2114945;84;20986;-87
2022/08/30 01:32:32;;;;;;;12.18;7.83;;;;;;;14.06;100.00;99104.74;2115276;84;20997;-86
2022/08/30 01:35:32;;;;;;;9.98;7.45;;;;;;;14.02;100.00;99101.69;2114476;84;21034;-87
2022/08/30 01:38:33;;;;;;;14.73;7.75;;;;;;;14.00;100.00;99108.97;2115204;84;21013;-86
2022/08/30 01:41:34;;;;;;;14.13;7.62;;;;;;;13.93;100.00;99108.92;2115239;84;21065;-86
2022/08/30 01:44:34;;;;;;;9.28;7.20;;;;;;;13.90;100.00;99111.13;2115225;84;20935;-86
2022/08/30 01:47:36;;;;;;;12.20;7.17;;;;;;;13.86;100.00;99104.61;2115214;84;21038;-86
2022/08/30 01:50:37;;;;;;;11.28;6.75;;;;;;;13.82;100.00;99103.38;2115342;84;21033;-87
2022/08/30 01:53:38;;;;;;;8.38;7.25;;;;;;;13.80;100.00;99109.30;2115270;84;21597;-86
2022/08/30 01:56:38;;;;;;;9.60;7.47;;;;;;;13.72;100.00;99106.83;2115384;84;21018;-86
2022/08/30 01:59:39;;;;;;;12.18;8.20;;;;;;;13.63;100.00;99106.16;2115122;84;21072;-87
2022/08/30 02:02:40;;;;;;;9.28;7.00;;;;;;;13.58;100.00;99108.52;2115144;84;21544;-87
2022/08/30 02:05:41;;;;;;;10.60;7.75;;;;;;;13.57;100.00;99108.22;2115074;84;21462;-87
2022/08/30 02:08:42;;;;;;;7.87;6.42;;;;;;;13.54;100.00;99103.34;2115273;84;21061;-87
2022/08/30 02:11:43;;;;;;;9.68;7.05;;;;;;;13.52;100.00;99110.08;2115241;84;20979;-86
2022/08/30 02:14:44;;;;;;;9.75;7.22;;;;;;;13.49;100.00;99105.70;2115145;84;21524;-86
2022/08/30 02:17:44;;;;;;;9.58;7.25;;;;;;;13.44;100.00;99106.77;2115221;84;20995;-87
2022/08/30 02:20:45;;;;;;;11.53;7.25;;;;;;;13.44;100.00;99103.66;2115160;84;21065;-87
2022/08/30 02:23:46;;;;;;;12.35;7.03;;;;;;;13.40;100.00;99101.58;2115140;84;21070;-87
2022/08/30 02:26:47;;;;;;;12.60;7.25;;;;;;;13.35;100.00;99101.66;2115260;84;21572;-86
2022/08/30 02:29:48;;;;;;;9.45;7.80;;;;;;;13.33;100.00;99097.56;2115152;84;21513;-87
2022/08/30 02:32:48;;;;;;;10.90;7.25;;;;;;;13.30;100.00;99099.27;2115249;84;21026;-87
2022/08/30 02:35:49;;;;;;;10.85;8.35;;;;;;;13.26;100.00;99102.78;2115159;84;21120;-87
2022/08/30 02:38:50;;;;;;;12.65;7.95;;;;;;;13.25;100.00;99102.44;2115229;84;21568;-86
2022/08/30 02:41:51;;;;;;;12.15;8.40;;;;;;;13.25;100.00;99103.75;2115282;84;21474;-86
2022/08/30 02:44:51;;;;;;;8.90;7.22;;;;;;;13.22;100.00;99092.30;2115195;84;21021;-87
2022/08/30 02:47:52;;;;;;;9.58;7.87;;;;;;;13.19;100.00;99090.06;2115306;84;21042;-86
2022/08/30 02:50:53;;;;;;;13.53;8.50;;;;;;;13.17;100.00;99087.28;2114944;84;21054;-87
2022/08/30 02:53:54;;;;;;;11.48;7.70;;;;;;;13.13;100.00;99092.08;2115284;84;21530;-86
2022/08/30 02:56:55;;;;;;;11.78;7.50;;;;;;;13.13;100.00;99084.19;2115456;84;21005;-86
2022/08/30 02:59:55;;;;;;;11.60;7.60;;;;;;;13.10;100.00;99083.26;2115346;84;21077;-86
2022/08/30 03:02:56;;;;;;;11.80;8.03;;;;;;;13.08;100.00;99082.14;2115318;84;20967;-86
2022/08/30 03:05:57;;;;;;;12.28;8.88;;;;;;;13.07;100.00;99082.30;2115344;84;20947;-87
2022/08/30 03:08:58;;;;;;;10.23;8.13;;;;;;;13.05;100.00;99082.48;2115577;84;21560;-86
2022/08/30 03:11:58;;;;;;;15.25;8.75;;;;;;;12.99;100.00;99085.88;2115462;84;21309;-87
2022/08/30 03:14:59;;;;;;;11.75;7.55;;;;;;;13.02;100.00;99087.31;2115389;84;21096;-86
2022/08/30 03:18:00;;;;;;;12.85;8.63;;;;;;;12.98;100.00;99094.73;2115289;84;21017;-87
2022/08/30 03:21:00;;;;;;;14.65;8.88;;;;;;;12.96;100.00;99095.94;2115276;84;21002;-87
2022/08/30 03:24:01;;;;;;;10.50;8.63;;;;;;;12.94;100.00;99098.75;2115376;84;21030;-86
2022/08/30 03:27:02;;;;;;;13.28;9.00;;;;;;;12.94;100.00;99104.01;2115351;84;21001;-86
2022/08/30 03:30:03;;;;;;;9.35;8.10;;;;;;;12.91;100.00;99099.63;2115279;84;20982;-86
2022/08/30 03:33:04;;;;;;;15.93;8.83;;;;;;;12.90;100.00;99102.77;2115421;84;21057;-86
2022/08/30 03:36:04;;;;;;;12.68;8.83;;;;;;;12.92;100.00;99101.26;2115556;84;21029;-86
2022/08/30 03:39:05;;;;;;;12.75;9.45;;;;;;;12.91;100.00;99104.89;2115412;84;20998;-85
2022/08/30 03:42:06;;;;;;;13.50;8.48;;;;;;;12.90;100.00;99096.19;2115445;84;21069;-86
2022/08/30 03:45:07;;;;;;;10.88;8.73;;;;;;;12.92;100.00;99094.19;2115650;84;21083;-85
2022/08/30 03:48:07;;;;;;;10.10;8.93;;;;;;;12.93;100.00;99092.37;2115590;84;20997;-86
2022/08/30 03:51:08;;;;;;;19.42;8.93;;;;;;;12.96;100.00;99097.25;2115497;84;21073;-89
2022/08/30 03:54:09;;;;;;;13.13;8.58;;;;;;;12.94;100.00;99097.94;2115604;84;22064;-86
2022/08/30 03:57:10;;;;;;;11.75;8.38;;;;;;;12.95;100.00;99087.73;2115461;84;21588;-88
2022/08/30 04:00:10;;;;;;;16.02;9.60;;;;;;;12.93;100.00;99092.37;2115343;84;21049;-87
2022/08/30 04:03:12;;;;;;;11.20;8.60;;;;;;;12.93;100.00;99098.94;2115179;84;21077;-89
2022/08/30 04:06:12;;;;;;;12.78;8.78;;;;;;;12.92;100.00;99107.83;2115302;84;21537;-88
2022/08/30 04:09:13;;;;;;;14.50;8.48;;;;;;;12.94;100.00;99112.39;2115456;84;20962;-90
2022/08/30 04:12:14;;;;;;;13.65;8.95;;;;;;;12.93;100.00;99115.52;2115591;84;21017;-85
2022/08/30 04:15:15;;;;;;;11.83;8.33;;;;;;;12.96;100.00;99119.09;2115562;84;20978;-87
2022/08/30 04:18:15;;;;;;;14.33;8.10;;;;;;;12.98;100.00;99125.47;2115150;83;21041;-89
2022/08/30 04:21:16;;;;;;;11.30;7.97;;;;;;;13.00;100.00;99128.75;2115539;84;21074;-89
2022/08/30 04:24:17;;;;;;;10.50;8.35;;;;;;;13.05;100.00;99135.56;2115664;84;21552;-92
2022/08/30 04:27:19;;;;;;;13.20;8.65;;;;;;;13.12;100.00;99133.02;2115831;84;21442;-92
2022/08/30 04:30:20;;;;;;;10.45;8.63;;;;;;;13.21;100.00;99135.88;2115648;84;21150;-89
2022/08/30 04:33:20;;;;;;;11.00;7.65;;;;;;;13.31;100.00;99133.76;2115416;84;21488;-88
2022/08/30 04:36:21;;;;;;;11.45;8.55;;;;;;;13.43;100.00;99136.20;2115346;84;21065;-90
2022/08/30 04:39:22;;;;;;;10.20;8.15;;;;;;;13.56;100.00;99128.95;2115586;84;21026;-87
2022/08/30 04:42:23;;;;;;;14.20;8.43;;;;;;;13.70;100.00;99135.13;2116110;84;21458;-88
2022/08/30 04:45:24;;;;;;;12.95;8.68;;;;;;;13.90;100.00;99134.31;2115410;84;21576;-86
2022/08/30 04:48:25;;;;;;;12.58;7.97;;;;;;;14.05;100.00;99146.06;2115146;84;20978;-89
2022/08/30 04:51:25;;;;;;;11.88;8.48;;;;;;;14.21;100.00;99143.64;2115133;84;21172;-91
2022/08/30 04:54:26;;;;;;;10.10;8.35;;;;;;;14.35;100.00;99151.12;2115048;84;21026;-92
2022/08/30 04:57:28;;;;;;;13.53;8.28;;;;;;;14.46;100.00;99158.03;2114454;84;21033;-91
2022/08/30 05:00:30;;;;;;;15.85;8.90;;;;;;;14.59;100.00;99162.55;2115442;84;21616;-88
2022/08/30 05:03:31;;;;;;;15.58;9.00;;;;;;;14.69;100.00;99159.05;2115097;84;21362;-86
2022/08/30 05:06:32;;;;;;;17.02;9.20;;;;;;;14.82;100.00;99168.06;2115193;84;21021;-87
2022/08/30 05:09:33;;;;;;;12.28;9.18;;;;;;;14.95;100.00;99168.11;2115225;84;21002;-87
2022/08/30 05:12:33;;;;;;;11.03;8.50;;;;;;;14.97;100.00;99161.61;2115222;84;21009;-87
2022/08/30 05:15:34;;;;;;;15.72;8.85;;;;;;;15.11;100.00;99171.73;2125303;83;20977;-88
2022/08/30 05:18:35;;;;;;;11.00;8.50;;;;;;;15.17;100.00;99171.42;2149625;83;21511;-86
2022/08/30 05:21:36;;;;;;;12.45;7.78;;;;;;;15.29;100.00;99175.95;2147359;83;21008;-89
2022/08/30 05:24:37;;;;;;;10.28;7.53;;;;;;;15.39;100.00;99176.89;2147534;83;21429;-90
2022/08/30 05:27:37;;;;;;;11.45;8.13;;;;;;;15.51;100.00;99179.75;2147445;83;21028;-91
2022/08/30 05:30:38;;;;;;;10.13;7.35;;;;;;;15.62;100.00;99187.91;2147146;83;21004;-91
2022/08/30 05:33:39;;;;;;;12.18;7.12;;;;;;;15.76;100.00;99177.39;2147343;83;20969;-91
2022/08/30 05:36:40;;;;;;;12.35;8.15;;;;;;;15.84;100.00;99180.66;2146715;83;21095;-92
2022/08/30 05:39:40;;;;;;;10.20;7.50;;;;;;;15.99;100.00;99178.30;2146848;83;20957;-90
2022/08/30 05:42:41;;;;;;;8.38;6.92;;;;;;;16.10;100.00;99185.14;2146748;83;21000;-90
2022/08/30 05:45:42;;;;;;;10.15;6.95;;;;;;;16.16;100.00;99184.30;2147482;83;21008;-91
2022/08/30 05:48:42;;;;;;;10.32;7.40;;;;;;;16.28;100.00;99186.34;2146840;83;21009;-90
2022/08/30 05:51:43;;;;;;;10.78;7.62;;;;;;;16.45;100.00;99179.08;2147313;83;21000;-90
2022/08/30 05:54:44;;;;;;;8.53;7.25;;;;;;;16.67;100.00;99182.82;2147262;83;21016;-91
2022/08/30 05:57:45;;;;;;;12.13;6.65;;;;;;;16.96;100.00;99184.18;2146990;83;20981;-90
2022/08/30 06:00:45;;;;;;;8.05;7.00;;;;;;;17.19;100.00;99183.19;2146770;83;21012;-91
2022/08/30 06:03:46;;;;;;;10.50;7.42;;;;;;;17.48;100.00;99191.07;2147002;83;20960;-91
2022/08/30 06:06:47;;;;;;;8.00;6.55;;;;;;;17.79;100.00;99186.31;2139104;83;21445;-90
2022/08/30 06:09:48;;;;;;;10.72;7.17;;;;;;;18.19;100.00;99183.34;2147097;83;21590;-90
2022/08/30 06:12:48;;;;;;;15.60;7.92;;;;;;;18.59;100.00;99175.84;2147420;83;21048;-90
2022/08/30 06:15:51;;;;;;;10.98;7.70;;;;;;;18.85;100.00;99187.23;2147101;83;21021;-89
2022/08/30 06:18:52;;;;;;;13.08;7.85;;;;;;;18.89;100.00;99187.07;2147099;83;21116;-90
2022/08/30 06:21:52;;;;;;;11.05;7.65;;;;;;;18.94;100.00;99186.71;2147250;83;21017;-90
2022/08/30 06:24:53;;;;;;;10.40;8.15;;;;;;;19.11;100.00;99190.06;2173825;81;21559;-90
2022/08/30 06:27:54;;;;;;;9.83;8.15;;;;;;;19.26;100.00;99191.83;2147362;83;21504;-91
2022/08/30 06:30:55;;;;;;;9.68;8.23;;;;;;;19.34;100.00;99188.86;2147317;83;21012;-90
2022/08/30 06:33:55;;;;;;;14.60;9.28;;;;;;;19.39;100.00;99189.53;2147140;83;21028;-89
2022/08/30 06:36:56;;;;;;;10.13;8.68;;;;;;;19.36;100.00;99188.11;2124222;83;21051;-90
2022/08/30 06:39:57;;;;;;;10.05;8.38;;;;;;;19.29;100.00;99188.70;2147384;83;21033;-90
2022/08/30 06:42:58;;;;;;;10.05;8.80;;;;;;;19.23;100.00;99186.45;2147276;83;21060;-90
2022/08/30 06:45:59;;;;;;;9.98;8.48;;;;;;;19.25;100.00;99195.52;2147307;83;21016;-90
2022/08/30 06:49:00;;;;;;;13.30;8.93;;;;;;;19.07;100.00;99199.52;2147163;83;21024;-90
2022/08/30 06:52:01;;;;;;;9.83;8.30;;;;;;;18.94;100.00;99192.53;2147088;83;20996;-90
2022/08/30 06:55:01;;;;;;;11.95;8.10;;;;;;;18.94;100.00;99193.34;2147080;83;21313;-89
2022/08/30 06:58:02;;;;;;;11.38;8.43;;;;;;;18.99;100.00;99205.41;2147080;83;21032;-90
2022/08/30 07:01:03;;;;;;;11.20;8.30;;;;;;;18.98;100.00;99200.33;2147283;83;20973;-91
2022/08/30 07:04:03;;;;;;;11.97;9.33;;;;;;;19.07;100.00;99200.84;2147397;83;21047;-90
2022/08/30 07:07:04;;;;;;;9.83;8.60;;;;;;;19.16;100.00;99208.28;2146949;83;21547;-89
2022/08/30 07:10:05;;;;;;;10.40;8.50;;;;;;;19.26;100.00;99213.87;2135517;83;21021;-89
2022/08/30 07:13:06;;;;;;;9.95;8.95;;;;;;;19.19;100.00;99210.48;2147294;83;21052;-90
2022/08/30 07:16:10;;;;;;;13.40;10.75;;;;;;;19.17;100.00;99218.38;2147281;83;20981;-89
2022/08/30 07:19:11;;;;;;;15.15;10.43;;;;;;;19.17;100.00;99217.86;2146862;83;21128;-89
2022/08/30 07:22:11;;;;;;;11.93;8.88;;;;;;;19.17;100.00;99220.52;2147146;83;21007;-88
2022/08/30 07:25:15;;;;;;;12.18;10.05;;;;;;;19.24;100.00;99224.42;2147177;83;20969;-88
2022/08/30 07:28:15;;;;;;;10.75;8.98;;;;;;;19.25;100.00;99229.50;2147274;83;21460;-89
2022/08/30 07:31:16;;;;;;;10.03;8.85;;;;;;;19.27;100.00;99231.93;2147360;83;21024;-90
2022/08/30 07:34:17;;;;;;;11.28;8.95;;;;;;;19.36;100.00;99227.12;2147477;83;21053;-91
2022/08/30 07:37:18;;;;;;;9.80;8.23;;;;;;;19.47;100.00;99230.34;2147723;83;21139;-91
2022/08/30 07:40:19;;;;;;;21.75;10.13;;;;;;;19.65;100.00;99230.33;2147445;83;21009;-90
2022/08/30 07:43:19;;;;;;;10.45;8.85;;;;;;;19.88;100.00;99229.61;2148064;83;21559;-92
2022/08/30 07:46:20;;;;;;;12.18;9.30;;;;;;;20.10;100.00;99221.91;2147745;83;20992;-86
2022/08/30 07:49:21;;;;;;;10.45;9.30;;;;;;;20.30;100.00;99222.91;2147743;83;21005;-87
2022/08/30 07:52:22;;;;;;;8.38;7.50;;;;;;;20.59;100.00;99219.38;2147680;83;20988;-87
2022/08/30 07:55:22;;;;;;;11.68;8.28;;;;;;;20.77;100.00;99221.11;2147890;83;20973;-86
2022/08/30 07:58:23;;;;;;;11.63;8.35;;;;;;;20.90;100.00;99216.85;2148797;83;21485;-87
2022/08/30 08:01:24;;;;;;;9.80;8.68;;;;;;;21.06;100.00;99215.84;2126040;83;21016;-86
2022/08/30 08:04:25;;;;;;;13.88;8.98;;;;;;;21.32;100.00;99219.34;2148825;83;21501;-87
2022/08/30 08:07:26;;;;;;;9.78;8.00;;;;;;;21.52;100.00;99225.56;2149020;83;20985;-87
2022/08/30 08:10:26;;;;;;;10.50;9.30;;;;;;;21.83;100.00;99230.91;2148318;83;20974;-88
2022/08/30 08:13:27;;;;;;;9.30;8.38;;;;;;;22.04;100.00;99230.76;2147861;83;21127;-88
2022/08/30 08:16:28;;;;;;;11.18;8.55;;;;;;;22.14;100.00;99237.62;2148277;83;21043;-92
2022/08/30 08:19:29;;;;;;;15.70;10.13;;;;;;;22.36;100.00;99232.34;2147766;83;21024;-91
2022/08/30 08:22:29;;;;;;;10.35;9.13;;;;;;;22.34;100.00;99237.13;2147558;83;21028;-87
2022/08/30 08:25:30;;;;;;;10.90;9.25;;;;;;;22.09;100.00;99234.33;2147464;83;21060;-89
2022/08/30 08:28:31;;;;;;;11.12;9.73;;;;;;;22.03;100.00;99229.92;2147701;83;20946;-87
2022/08/30 08:31:32;;;;;;;11.43;9.00;;;;;;;22.16;100.00;99237.38;2147508;83;21526;-90
2022/08/30 08:34:32;;;;;;;9.73;8.73;;;;;;;22.12;100.00;99237.03;2147127;83;21013;-87
2022/08/30 08:37:33;;;;;;;9.40;8.50;;;;;;;22.00;100.00;99237.08;2147237;83;22211;-87
2022/08/30 08:40:34;;;;;;;10.20;9.20;;;;;;;21.92;100.00;99238.80;2147273;83;21064;-86
2022/08/30 08:43:36;;;;;;;11.80;9.63;;;;;;;21.78;100.00;99238.31;2147390;83;20973;-87
2022/08/30 08:46:36;;;;;;;8.85;7.95;;;;;;;21.76;100.00;99239.08;2147252;83;21128;-87
2022/08/30 08:49:37;;;;;;;9.20;8.30;;;;;;;21.84;100.00;99237.33;2147382;83;21027;-87
2022/08/30 08:55:57;;;;;;;5.80;5.37;;;;;;;22.14;100.00;99232.28;2147124;83;21064;-87
2022/08/30 08:58:58;;;;;;;5.00;4.60;;;;;;;22.37;100.00;99236.10;2147060;83;21051;-86
2022/08/30 09:02:00;;;;;;;6.03;4.80;;;;;;;22.53;100.00;99235.01;2147248;83;21749;-87
2022/08/30 09:05:01;;;;;;;5.85;4.65;;;;;;;22.54;100.00;99237.43;2147219;83;21004;-87
2022/08/30 09:08:02;;;;;;;5.50;4.30;;;;;;;22.53;100.00;99233.67;2147354;83;21052;-86
2022/08/30 09:11:03;;;;;;;4.40;4.10;;;;;;;22.50;100.00;99240.84;2147260;83;20981;-85
2022/08/30 09:14:06;;;;;;;5.00;4.05;;;;;;;22.45;100.00;99244.23;2146932;83;21044;-86
2022/08/30 09:17:06;;;;;;;4.15;3.45;;;;;;;22.54;100.00;99231.28;2146538;83;21127;-85
2022/08/30 09:20:07;;;;;;;3.17;2.80;;;;;;;22.71;100.00;99228.88;2146842;83;20977;-87
2022/08/30 09:23:07;;;;;;;3.70;3.40;;;;;;;22.90;100.00;99230.76;2147006;83;21737;-87
2022/08/30 09:26:08;;;;;;;5.37;3.22;;;;;;;23.20;100.00;99230.84;2147198;83;21068;-87
2022/08/30 09:29:09;;;;;;;3.10;2.90;;;;;;;23.32;100.00;99228.04;2147112;83;21009;-87
2022/08/30 09:32:10;;;;;;;3.92;3.62;;;;;;;23.31;100.00;99228.57;2147000;83;21096;-87
2022/08/30 09:35:12;;;;;;;3.87;3.58;;;;;;;23.27;100.00;99238.96;2147269;83;21569;-86
2022/08/30 09:38:12;;;;;;;3.85;3.55;;;;;;;23.30;100.00;99231.50;2147177;83;21631;-87
2022/08/30 09:41:13;;;;;;;4.42;3.30;;;;;;;23.30;100.00;99237.64;2147406;83;21048;-86
2022/08/30 09:44:14;;;;;;;4.10;3.70;;;;;;;23.22;100.00;99232.73;2147260;83;21028;-86
2022/08/30 09:47:15;;;;;;;3.40;3.10;;;;;;;23.39;100.00;99236.15;2147483;83;21084;-86
2022/08/30 09:50:16;;;;;;;4.15;3.85;;;;;;;23.69;100.00;99234.91;2147191;83;21000;-86
2022/08/30 09:53:17;;;;;;;4.17;3.87;;;;;;;23.75;100.00;99237.89;2147233;83;21513;-87
2022/08/30 09:56:18;;;;;;;3.87;3.58;;;;;;;23.47;100.00;99236.23;2147413;83;21031;-90
2022/08/30 09:59:19;;;;;;;3.95;3.37;;;;;;;23.15;100.00;99239.63;2147552;83;20989;-86
2022/08/30 10:02:20;;;;;;;3.40;3.20;;;;;;;22.96;100.00;99243.66;2147198;83;20997;-86
2022/08/30 10:05:20;;;;;;;3.33;3.10;;;;;;;22.74;100.00;99245.44;2147144;83;21005;-86
2022/08/30 10:08:21;;;;;;;4.08;3.15;;;;;;;22.71;100.00;99240.88;2147073;83;21000;-89
2022/08/30 10:11:22;;;;;;;3.62;3.33;;;;;;;22.90;100.00;99239.30;2147358;83;21023;-89
2022/08/30 10:14:22;;;;;;;3.42;3.12;;;;;;;23.10;100.00;99229.39;2147550;83;21008;-88
2022/08/30 10:17:24;;;;;;;3.80;3.52;;;;;;;23.30;100.00;99228.83;2147142;83;21345;-88
2022/08/30 10:20:24;;;;;;;3.90;3.60;;;;;;;23.34;100.00;99216.07;2147149;83;21072;-88
2022/08/30 10:23:28;;;;;;;2.90;2.77;;;;;;;23.54;100.00;99235.52;2147004;83;21148;-87
2022/08/30 10:26:32;;;;;;;3.90;3.50;;;;;;;23.62;100.00;99232.96;2146773;83;21048;-89
2022/08/30 10:29:33;;;;;;;3.72;3.52;;;;;;;23.69;100.00;99230.91;2147309;83;21053;-87
2022/08/30 10:32:36;;;;;;;;;;;;;;;;;;;;;
2022/08/30 10:35:36;;;;;;;3.50;3.20;;;;;;;24.03;100.00;99220.77;2146968;83;21115;-87
2022/08/30 10:38:37;;;;;;;3.58;3.25;;;;;;;24.04;100.00;99220.50;2147123;83;21500;-87
2022/08/30 10:41:38;;;;;;;3.37;3.17;;;;;;;23.97;100.00;99227.95;2147548;83;21032;-87
2022/08/30 10:44:38;;;;;;;3.65;3.15;;;;;;;23.77;100.00;99213.88;2147117;83;20980;-87
2022/08/30 10:47:39;;;;;;;4.00;2.85;;;;;;;23.69;100.00;99212.19;2147267;83;20980;-87
2022/08/30 10:50:40;;;;;;;3.10;2.90;;;;;;;23.88;100.00;99212.09;2147355;83;21471;-86
2022/08/30 10:53:41;;;;;;;3.27;2.98;;;;;;;24.19;100.00;99209.66;2147258;83;20969;-88
2022/08/30 10:56:41;;;;;;;3.27;3.02;;;;;;;24.37;100.00;99206.61;2147218;83;21043;-87
2022/08/30 10:59:44;;;;;;;3.87;3.58;;;;;;;24.47;100.00;99204.00;2147344;83;21040;-88
2022/08/30 11:02:44;;;;;;;3.55;3.02;;;;;;;24.47;100.00;99213.90;2147268;83;21098;-87
2022/08/30 11:05:45;;;;;;;4.37;4.05;;;;;;;24.28;100.00;99213.47;2147282;83;21016;-88
2022/08/30 11:08:46;;;;;;;4.12;3.83;;;;;;;24.04;100.00;99214.34;2147301;83;21535;-87
2022/08/30 11:11:47;;;;;;;4.33;3.95;;;;;;;23.78;100.00;99210.67;2147313;83;20976;-87
2022/08/30 11:14:48;;;;;;;4.22;3.83;;;;;;;23.51;100.00;99209.30;2147343;83;21024;-88
2022/08/30 11:17:50;;;;;;;4.70;4.30;;;;;;;23.42;100.00;99212.95;2146533;83;21040;-88
2022/08/30 11:20:52;;;;;;;4.78;4.37;;;;;;;23.27;100.00;99217.59;2147379;83;20977;-87
2022/08/30 11:23:52;;;;;;;5.03;4.53;;;;;;;23.17;100.00;99212.66;2147698;83;20981;-87
2022/08/30 11:26:56;;;;;;;5.08;4.58;;;;;;;23.11;100.00;99211.78;2147190;83;21092;-87
2022/08/30 11:29:56;;;;;;;5.30;4.90;;;;;;;23.15;100.00;99210.78;2146783;83;21055;-88
2022/08/30 11:32:57;;;;;;;5.10;4.70;;;;;;;23.29;100.00;99216.00;2146853;83;20973;-86
2022/08/30 11:35:58;;;;;;;4.30;4.00;;;;;;;23.49;100.00;99210.87;2146903;83;21027;-86
2022/08/30 11:39:00;;;;;;;4.20;3.80;;;;;;;23.64;100.00;99212.12;2146983;83;21100;-87
2022/08/30 11:42:03;;;;;;;5.42;3.75;;;;;;;23.66;100.00;99208.13;2147108;83;21028;-88
2022/08/30 11:45:04;;;;;;;4.17;3.95;;;;;;;23.68;100.00;99204.70;2147113;83;21584;-88
2022/08/30 11:48:06;;;;;;;4.42;4.12;;;;;;;23.72;100.00;99209.00;2147327;83;21425;-88
2022/08/30 11:51:06;;;;;;;4.80;3.77;;;;;;;23.66;100.00;99207.33;2147177;83;21574;-89
2022/08/30 11:54:07;;;;;;;4.10;3.70;;;;;;;23.63;100.00;99199.83;2147155;83;21004;-88
2022/08/30 11:57:08;;;;;;;5.10;4.17;;;;;;;23.76;100.00;99205.55;2147221;83;21067;-88
2022/08/30 12:00:09;;;;;;;4.45;3.85;;;;;;;23.87;100.00;99205.67;2147404;83;21487;-87
2022/08/30 12:03:09;;;;;;;4.72;4.30;;;;;;;23.82;100.00;99203.75;2148151;83;21555;-90
2022/08/30 12:06:10;;;;;;;4.50;4.12;;;;;;;23.70;100.00;99201.77;2147544;83;21056;-89
2022/08/30 12:09:11;;;;;;;4.65;4.25;;;;;;;23.63;100.00;99202.50;2147546;83;21013;-89
2022/08/30 12:12:12;;;;;;;4.22;4.00;;;;;;;23.51;100.00;99195.95;2147384;83;21020;-88
2022/08/30 12:15:13;;;;;;;5.33;4.05;;;;;;;23.50;100.00;99192.47;2147860;83;21001;-89
2022/08/30 12:18:28;;;;;;;4.60;4.12;;;;;;;23.54;100.00;99193.56;2147520;83;20977;-89
2022/08/30 12:21:29;;;;;;;4.62;4.33;;;;;;;23.61;100.00;99190.73;2143633;83;20995;-89
2022/08/30 12:24:31;;;;;;;5.08;4.15;;;;;;;23.66;100.00;99188.62;2148321;83;21492;-87
2022/08/30 12:27:32;;;;;;;4.33;4.03;;;;;;;23.50;100.00;99190.33;2147563;83;21511;-88
2022/08/30 12:30:37;;;;;;;4.95;4.42;;;;;;;23.37;100.00;99184.03;2147679;83;21013;-88
2022/08/30 12:33:35;;;;;;;5.33;4.85;;;;;;;23.32;100.00;99181.29;2148379;81;21000;-88
2022/08/30 12:36:38;;;;;;;5.45;5.10;;;;;;;23.49;100.00;99172.66;2147785;83;21020;-86
2022/08/30 12:39:38;;;;;;;5.40;4.97;;;;;;;23.60;100.00;99163.73;2147756;83;21535;-88
2022/08/30 12:42:43;;;;;;;5.37;4.87;;;;;;;23.54;100.00;99164.17;2147396;83;21020;-86
2022/08/30 12:45:44;;;;;;;4.85;4.55;;;;;;;23.48;100.00;99161.16;2147449;83;21067;-87
2022/08/30 12:48:44;;;;;;;4.50;4.08;;;;;;;23.38;100.00;99162.93;2147290;83;20988;-87
2022/08/30 12:51:45;;;;;;;4.72;4.53;;;;;;;23.28;100.00;99163.10;2147517;83;21519;-88
2022/08/30 12:54:46;;;;;;;4.17;3.83;;;;;;;23.16;100.00;99155.77;2147372;83;21059;-88
2022/08/30 12:57:47;;;;;;;4.15;3.85;;;;;;;23.17;100.00;99149.37;2147333;83;21507;-87
2022/08/30 13:00:48;;;;;;;4.60;4.30;;;;;;;23.19;100.00;99156.59;2147385;83;21028;-88
2022/08/30 13:03:49;;;;;;;4.08;3.77;;;;;;;23.06;100.00;99150.31;2147318;83;21689;-86
2022/08/30 13:06:49;;;;;;;4.40;4.10;;;;;;;22.91;100.00;99140.26;2147419;83;21024;-88
2022/08/30 13:09:50;;;;;;;4.28;3.98;;;;;;;22.83;100.00;99137.19;2147226;83;21016;-88
2022/08/30 13:12:51;;;;;;;4.03;3.72;;;;;;;22.82;100.00;99134.24;2147380;83;20985;-88
2022/08/30 13:15:52;;;;;;;3.70;3.45;;;;;;;22.86;100.00;99131.38;2147311;83;20996;-88
2022/08/30 13:18:52;;;;;;;4.03;3.72;;;;;;;22.86;100.00;99128.20;2147214;83;21519;-87
2022/08/30 13:21:53;;;;;;;3.55;3.35;;;;;;;22.79;100.00;99128.88;2147327;83;21064;-86
2022/08/30 13:24:54;;;;;;;3.70;3.40;;;;;;;22.72;100.00;99129.59;2147415;83;20981;-88
2022/08/30 13:27:55;;;;;;;3.10;2.98;;;;;;;22.53;100.00;99129.09;2147564;83;21472;-87
2022/08/30 13:30:55;;;;;;;3.67;3.40;;;;;;;22.41;100.00;99125.20;2147657;83;21095;-90
2022/08/30 13:33:56;;;;;;;4.10;3.55;;;;;;;22.31;100.00;99122.41;2147522;83;21009;-91
2022/08/30 13:36:57;;;;;;;3.40;3.30;;;;;;;22.30;100.00;99126.09;2148020;83;20992;-95
2022/08/30 13:39:58;;;;;;;3.45;3.25;;;;;;;22.31;100.00;99131.73;2148243;83;21018;-91
2022/08/30 13:42:59;;;;;;;4.05;3.75;;;;;;;22.33;100.00;99131.48;2147251;83;21386;-86
2022/08/30 13:45:59;;;;;;;3.52;3.33;;;;;;;22.37;100.00;99130.73;2147034;83;20993;-87
2022/08/30 13:49:00;;;;;;;4.22;3.92;;;;;;;22.43;100.00;99124.95;2147757;83;21584;-89
2022/08/30 13:52:01;;;;;;;3.58;3.37;;;;;;;22.46;100.00;99128.98;2147804;83;20965;-91
2022/08/30 13:55:01;;;;;;;4.08;3.77;;;;;;;22.45;100.00;99139.37;2147420;83;21008;-86
2022/08/30 13:58:02;;;;;;;3.58;3.22;;;;;;;22.26;100.00;99130.84;2147332;83;21027;-89
2022/08/30 14:01:03;;;;;;;3.58;3.33;;;;;;;22.08;100.00;99133.25;2147040;83;21024;-90